Hlavní strana
METAR-TAF:

METAR-TAF

Letiště :

Bari, Itálie

zeměpisná šířka: 41-08N, zeměpisná délka: 016-47E, výška: 34 m

Aktuální stav počasí

Zpráva byla vytvořena před 25 minutami, v 08:50 UTC
Severní vítr 14 kt
Teplota 13°C
Vlhkost vzduchu 54%
Tlak 1010 hPa
Viditelnost 10 km a více
Polojasno ve výšce 3500 ft

METAR: LIBD 110850Z 01014KT 9999 SCT035 13/04 Q1010

Čas: 10:15 (09:15 UTC)

Předpověď počasí

Zpráva byla vytvořena před 4 hodinami a 15 minutami, v 05:00 UTC
Předpověď platná od 11 v 06 UTC do 12 v 06 UTC
Severoseverovýchodní vítr 13 kt
Viditelnost 10 km a více
Polojasno ve výšce 3000 ft
Dočasný
od 11 v 06 UTC do 11 v 09 UTC
déšť

TAF: LIBD 110500Z 1106/1206 03013KT 9999 SCT030 TEMPO 1106/1109 RA

Stav a předpovědi počasí z více než 4 000 letišť (zprávy METAR a TAF).

Červené a žluté tečky na mapě představují dostupné meteorologické stanice.

Když kurzor umístíte na tečku, zobrazí se název stanice.

Pak kliknutím zobrazíte stav a předpověď počasí.

Chcete-li změnit mapu, kliknutím na zelené tlačítko se znaménkem +mapu přiblížíte, kliknutím na zelené tlačítko se znaménkem – mapu oddálíte a kliknutím na zelené šipky přejdete na sousední mapy.


METAR-TAF: